createdAt,value
2019-02-20T00:00:35.415Z,4.66
2019-02-20T00:01:35.328Z,4.71
2019-02-20T00:02:35.241Z,4.87
2019-02-20T00:03:35.165Z,4.82
2019-02-20T00:04:35.065Z,4.73
2019-02-20T00:05:34.970Z,4.70
2019-02-20T00:06:34.891Z,4.71
2019-02-20T00:07:34.814Z,4.82
2019-02-20T00:08:34.713Z,4.60
2019-02-20T00:09:34.630Z,4.74
2019-02-20T00:10:34.542Z,4.62
2019-02-20T00:11:34.454Z,4.67
2019-02-20T00:12:34.364Z,4.62
2019-02-20T00:13:34.280Z,4.63
2019-02-20T00:14:34.188Z,4.59
2019-02-20T00:15:34.106Z,4.56
2019-02-20T00:16:34.011Z,4.55
2019-02-20T00:17:33.928Z,4.56
2019-02-20T00:18:33.836Z,4.58
2019-02-20T00:19:33.755Z,4.48
2019-02-20T00:20:33.668Z,4.45
2019-02-20T00:21:33.608Z,4.50
2019-02-20T00:22:40.028Z,4.45
2019-02-20T00:23:33.405Z,4.60
2019-02-20T00:24:33.317Z,4.63
2019-02-20T00:25:33.226Z,4.60
2019-02-20T00:26:33.143Z,4.66
2019-02-20T00:27:33.052Z,4.67
2019-02-20T00:28:32.966Z,4.67
2019-02-20T00:29:32.881Z,4.67
2019-02-20T00:30:32.790Z,4.56
2019-02-20T00:31:32.704Z,4.60
2019-02-20T00:32:32.616Z,4.59
2019-02-20T00:33:32.527Z,4.68
2019-02-20T00:34:32.443Z,4.68
2019-02-20T00:35:32.358Z,4.66
2019-02-20T00:36:32.259Z,4.71
2019-02-20T00:37:32.180Z,4.70
2019-02-20T00:38:32.091Z,4.68
2019-02-20T00:39:32.007Z,4.68
2019-02-20T00:40:31.915Z,4.58
2019-02-20T00:41:31.826Z,4.50
2019-02-20T00:42:31.740Z,4.40
2019-02-20T00:43:31.663Z,4.32
2019-02-20T00:44:31.565Z,4.34
2019-02-20T00:45:31.479Z,4.30
2019-02-20T00:46:31.394Z,4.20
2019-02-20T00:47:31.305Z,4.16
2019-02-20T00:48:31.225Z,4.08
2019-02-20T00:49:31.127Z,4.10
2019-02-20T00:50:31.039Z,4.04
2019-02-20T00:51:30.954Z,4.02
2019-02-20T00:52:30.862Z,3.95
2019-02-20T00:53:30.775Z,4.04
2019-02-20T00:54:30.709Z,4.16
2019-02-20T00:55:30.605Z,4.08
2019-02-20T00:56:30.513Z,4.13
2019-02-20T00:57:30.426Z,4.22
2019-02-20T00:58:30.338Z,4.32
2019-02-20T00:59:30.249Z,4.23
2019-02-20T01:00:30.173Z,4.12
2019-02-20T01:01:30.075Z,4.28
2019-02-20T01:02:29.986Z,4.26
2019-02-20T01:03:29.898Z,4.22
2019-02-20T01:04:29.806Z,4.34
2019-02-20T01:05:29.717Z,4.26
2019-02-20T01:06:29.637Z,4.38
2019-02-20T01:07:29.548Z,4.32
2019-02-20T01:08:29.457Z,4.37
2019-02-20T01:09:29.403Z,4.34
2019-02-20T01:10:29.279Z,4.32
2019-02-20T01:11:29.198Z,4.26
2019-02-20T01:12:29.104Z,4.30
2019-02-20T01:13:29.017Z,4.31
2019-02-20T01:14:28.947Z,4.20
2019-02-20T01:15:28.847Z,4.35
2019-02-20T01:16:28.755Z,4.35
2019-02-20T01:17:28.670Z,4.32
2019-02-20T01:18:28.585Z,4.34
2019-02-20T01:19:28.487Z,4.20
2019-02-20T01:20:28.400Z,4.24
2019-02-20T01:21:28.314Z,4.16
2019-02-20T01:22:28.229Z,4.06
2019-02-20T01:23:28.137Z,4.13
2019-02-20T01:24:28.058Z,3.98
2019-02-20T01:25:27.966Z,3.99
2019-02-20T01:26:27.882Z,4.12
2019-02-20T01:27:27.785Z,4.13
2019-02-20T01:28:27.703Z,4.13
2019-02-20T01:29:27.616Z,4.12
2019-02-20T01:30:27.527Z,4.14
2019-02-20T01:31:27.479Z,4.14
2019-02-20T01:32:27.365Z,4.10
2019-02-20T01:33:27.264Z,3.94
2019-02-20T01:34:27.174Z,4.14
2019-02-20T01:35:27.086Z,4.10
2019-02-20T01:36:26.999Z,4.13
2019-02-20T01:37:26.919Z,4.13
2019-02-20T01:38:26.825Z,3.98
2019-02-20T01:39:26.738Z,4.05
2019-02-20T01:40:26.639Z,3.92
2019-02-20T01:41:26.559Z,3.86
2019-02-20T01:42:26.483Z,3.77
2019-02-20T01:43:26.384Z,3.77
2019-02-20T01:44:26.291Z,3.65
2019-02-20T01:45:26.205Z,3.65
2019-02-20T01:46:26.131Z,3.62
2019-02-20T01:47:26.029Z,3.58
2019-02-20T01:48:25.943Z,3.58
2019-02-20T01:49:25.857Z,3.56
2019-02-20T01:50:25.766Z,3.62
2019-02-20T01:51:25.677Z,3.78
2019-02-20T01:52:25.588Z,3.76
2019-02-20T01:53:25.503Z,3.80
2019-02-20T01:54:25.440Z,3.84
2019-02-20T01:55:25.320Z,3.68
2019-02-20T01:56:25.236Z,3.66
2019-02-20T01:57:25.150Z,3.50
2019-02-20T01:58:25.071Z,3.65
2019-02-20T01:59:24.973Z,3.69
2019-02-20T02:00:24.901Z,3.78
2019-02-20T02:01:24.798Z,3.80
2019-02-20T02:02:24.708Z,3.77
2019-02-20T02:03:24.624Z,3.66
2019-02-20T02:04:24.541Z,3.65
2019-02-20T02:05:24.443Z,3.62
2019-02-20T02:06:24.361Z,3.55
2019-02-20T02:07:24.267Z,3.58
2019-02-20T02:08:24.193Z,3.48
2019-02-20T02:09:24.093Z,3.60
2019-02-20T02:10:24.001Z,3.45
2019-02-20T02:11:23.911Z,3.47
2019-02-20T02:12:23.825Z,3.53
2019-02-20T02:13:23.737Z,3.55
2019-02-20T02:14:23.653Z,3.47
2019-02-20T02:15:23.571Z,3.56
2019-02-20T02:16:23.469Z,3.62
2019-02-20T02:17:23.385Z,3.68
2019-02-20T02:18:23.350Z,3.70
2019-02-20T02:19:23.208Z,3.53
2019-02-20T02:20:23.115Z,3.53
2019-02-20T02:21:23.028Z,3.58
2019-02-20T02:22:22.941Z,3.59
2019-02-20T02:23:22.862Z,3.68
2019-02-20T02:24:22.766Z,3.69
2019-02-20T02:25:22.678Z,3.63
2019-02-20T02:26:22.593Z,3.70
2019-02-20T02:27:22.500Z,3.77
2019-02-20T02:28:22.427Z,3.69
2019-02-20T02:29:22.324Z,3.83
2019-02-20T02:30:22.240Z,3.78
2019-02-20T02:31:22.143Z,3.81
2019-02-20T02:32:22.054Z,3.69
2019-02-20T02:33:21.982Z,3.80
2019-02-20T02:34:21.879Z,3.62
2019-02-20T02:35:21.795Z,3.62
2019-02-20T02:36:21.708Z,3.70
2019-02-20T02:37:21.621Z,3.63
2019-02-20T02:38:21.526Z,3.66
2019-02-20T02:39:21.442Z,3.60
2019-02-20T02:40:21.366Z,3.62
2019-02-20T02:41:21.268Z,3.66
2019-02-20T02:42:21.176Z,3.66
2019-02-20T02:43:21.092Z,3.77
2019-02-20T02:44:21.002Z,3.80
2019-02-20T02:45:20.910Z,3.80
2019-02-20T02:46:20.823Z,3.80
2019-02-20T02:47:20.735Z,3.78
2019-02-20T02:48:20.672Z,3.81
2019-02-20T02:49:20.563Z,3.80
2019-02-20T02:50:20.493Z,3.87
2019-02-20T02:51:20.385Z,3.87
2019-02-20T02:52:20.292Z,3.78
2019-02-20T02:53:30.030Z,3.77
2019-02-20T02:54:20.142Z,3.80
2019-02-20T02:55:20.029Z,3.76
2019-02-20T02:56:19.940Z,3.65
2019-02-20T02:57:19.858Z,3.77
2019-02-20T02:58:19.764Z,3.76
2019-02-20T02:59:19.676Z,3.69
2019-02-20T03:00:19.586Z,3.77
2019-02-20T03:01:19.499Z,3.70
2019-02-20T03:02:19.413Z,3.76
2019-02-20T03:03:19.320Z,3.76
2019-02-20T03:04:19.235Z,3.76
2019-02-20T03:05:19.145Z,3.60
2019-02-20T03:06:19.068Z,3.62
2019-02-20T03:07:18.968Z,3.65
2019-02-20T03:08:18.884Z,3.77
2019-02-20T03:09:18.792Z,3.66
2019-02-20T03:10:18.708Z,3.69
2019-02-20T03:11:18.618Z,3.62
2019-02-20T03:12:18.533Z,3.65
2019-02-20T03:13:18.437Z,3.66
2019-02-20T03:14:18.351Z,3.65
2019-02-20T03:15:18.265Z,3.66
2019-02-20T03:16:18.177Z,3.63
2019-02-20T03:17:18.092Z,3.65
2019-02-20T03:18:17.996Z,3.63
2019-02-20T03:19:17.913Z,3.73
2019-02-20T03:20:17.825Z,3.62
2019-02-20T03:21:17.736Z,3.63
2019-02-20T03:22:17.649Z,3.65
2019-02-20T03:23:17.564Z,3.65
2019-02-20T03:24:17.471Z,3.70
2019-02-20T03:25:17.384Z,3.68
2019-02-20T03:26:17.295Z,3.63
2019-02-20T03:27:17.208Z,3.66
2019-02-20T03:28:17.122Z,3.63
2019-02-20T03:29:17.032Z,3.63
2019-02-20T03:30:16.938Z,3.60
2019-02-20T03:31:16.856Z,3.63
2019-02-20T03:32:16.777Z,3.56
2019-02-20T03:33:16.679Z,3.56
2019-02-20T03:34:16.592Z,3.63
2019-02-20T03:35:16.499Z,3.50
2019-02-20T03:36:16.413Z,3.59
2019-02-20T03:37:16.324Z,3.55
2019-02-20T03:38:16.235Z,3.58
2019-02-20T03:39:16.149Z,3.58
2019-02-20T03:40:16.083Z,3.60
2019-02-20T03:41:15.973Z,3.60
2019-02-20T03:42:15.885Z,3.60
2019-02-20T03:43:15.794Z,3.56
2019-02-20T03:44:15.708Z,3.62
2019-02-20T03:45:15.622Z,3.63
2019-02-20T03:46:15.534Z,3.62
2019-02-20T03:47:15.444Z,3.56
2019-02-20T03:48:15.362Z,3.59
2019-02-20T03:49:15.277Z,3.55
2019-02-20T03:50:15.176Z,3.55
2019-02-20T03:51:15.093Z,3.55
2019-02-20T03:52:15.004Z,3.50
2019-02-20T03:53:14.918Z,3.50
2019-02-20T03:54:14.824Z,3.50
2019-02-20T03:55:14.738Z,3.50
2019-02-20T03:56:14.655Z,3.45
2019-02-20T03:57:14.563Z,3.42
2019-02-20T03:58:14.478Z,3.40
2019-02-20T03:59:14.393Z,3.42
2019-02-20T04:00:14.292Z,3.45
2019-02-20T04:01:14.218Z,3.42
2019-02-20T04:02:14.122Z,3.28
2019-02-20T04:03:14.031Z,3.42
2019-02-20T04:04:13.947Z,3.34
2019-02-20T04:05:13.863Z,3.41
2019-02-20T04:06:13.794Z,3.34
2019-02-20T04:07:13.681Z,3.26
2019-02-20T04:08:13.594Z,3.45
2019-02-20T04:09:13.505Z,3.31
2019-02-20T04:10:13.417Z,3.28
2019-02-20T04:11:13.339Z,3.34
2019-02-20T04:12:13.239Z,3.28
2019-02-20T04:13:13.160Z,3.26
2019-02-20T04:14:13.061Z,3.32
2019-02-20T04:15:12.977Z,3.34
2019-02-20T04:16:12.890Z,3.29
2019-02-20T04:17:12.797Z,3.28
2019-02-20T04:18:12.710Z,3.42
2019-02-20T04:19:12.617Z,3.41
2019-02-20T04:20:12.533Z,3.28
2019-02-20T04:21:12.444Z,3.47
2019-02-20T04:23:44.360Z,3.37
2019-02-20T04:24:44.257Z,3.31
2019-02-20T04:26:48.556Z,3.48
2019-02-20T04:27:48.451Z,3.34
2019-02-20T04:28:48.359Z,3.36
2019-02-20T04:29:48.267Z,3.34
2019-02-20T04:30:48.191Z,3.29
2019-02-20T04:31:48.097Z,3.31
2019-02-20T04:32:48.010Z,3.29
2019-02-20T04:33:47.918Z,3.37
2019-02-20T04:34:47.836Z,3.36
2019-02-20T04:35:47.742Z,3.40
2019-02-20T04:36:47.654Z,3.36
2019-02-20T04:37:47.583Z,3.34
2019-02-20T04:38:47.476Z,3.29
2019-02-20T04:39:47.390Z,3.32
2019-02-20T04:40:47.300Z,3.26
2019-02-20T04:41:47.213Z,3.28
2019-02-20T04:42:47.125Z,3.31
2019-02-20T04:43:47.034Z,3.31
2019-02-20T04:44:46.946Z,3.28
2019-02-20T04:45:46.853Z,3.19
2019-02-20T04:46:46.772Z,3.16
2019-02-20T04:47:46.683Z,3.19
2019-02-20T04:48:46.591Z,3.32
2019-02-20T04:49:46.505Z,3.36
2019-02-20T04:50:46.426Z,3.26
2019-02-20T04:51:46.332Z,3.26
2019-02-20T04:52:46.250Z,3.32
2019-02-20T04:53:46.156Z,3.29
2019-02-20T04:54:46.079Z,3.26
2019-02-20T04:55:45.978Z,3.32
2019-02-20T04:56:45.886Z,3.28
2019-02-20T04:57:45.816Z,3.25
2019-02-20T04:58:45.711Z,3.25
2019-02-20T04:59:45.625Z,3.31
2019-02-20T05:00:45.532Z,3.34
2019-02-20T05:01:45.446Z,3.23
2019-02-20T05:02:45.354Z,3.25
2019-02-20T05:03:45.264Z,3.25
2019-02-20T05:04:45.178Z,3.32
2019-02-20T05:05:45.090Z,3.25
2019-02-20T05:06:45.005Z,3.36
2019-02-20T05:07:44.916Z,3.28
2019-02-20T05:08:44.825Z,3.31
2019-02-20T05:09:44.743Z,3.29
2019-02-20T05:10:44.649Z,3.31
2019-02-20T05:11:44.580Z,3.25
2019-02-20T05:12:44.469Z,3.40
2019-02-20T05:13:44.379Z,3.32
2019-02-20T05:14:44.297Z,3.26
2019-02-20T05:15:44.203Z,3.25
2019-02-20T05:16:44.121Z,3.31
2019-02-20T05:17:44.033Z,3.28
2019-02-20T05:18:43.968Z,3.29
2019-02-20T05:19:43.851Z,3.25
2019-02-20T05:20:43.763Z,3.25
2019-02-20T05:21:43.672Z,3.16
2019-02-20T05:22:43.615Z,3.14
2019-02-20T05:23:43.508Z,3.11
2019-02-20T05:24:43.413Z,3.00
2019-02-20T05:25:43.323Z,2.92
2019-02-20T05:26:43.229Z,2.95
2019-02-20T05:27:43.145Z,2.95
2019-02-20T05:28:43.056Z,2.92
2019-02-20T05:29:42.975Z,2.93
2019-02-20T05:30:42.884Z,2.71
2019-02-20T05:31:42.793Z,2.74
2019-02-20T05:32:42.699Z,2.72
2019-02-20T05:33:42.614Z,2.79
2019-02-20T05:34:42.523Z,2.79
2019-02-20T05:35:42.437Z,2.85
2019-02-20T05:36:42.370Z,2.85
2019-02-20T05:37:42.261Z,2.93
2019-02-20T05:38:42.172Z,2.93
2019-02-20T05:39:42.082Z,2.93
2019-02-20T05:40:41.998Z,3.04
2019-02-20T05:41:41.902Z,2.90
2019-02-20T05:42:41.818Z,2.95
2019-02-20T05:43:41.730Z,2.85
2019-02-20T05:44:41.640Z,2.87
2019-02-20T05:45:41.544Z,2.93
2019-02-20T05:46:41.465Z,2.85
2019-02-20T05:47:41.376Z,2.86
2019-02-20T05:48:41.290Z,2.90
2019-02-20T05:49:41.195Z,2.97
2019-02-20T05:50:41.107Z,2.90
2019-02-20T05:51:41.025Z,2.92
2019-02-20T05:52:40.938Z,2.90
2019-02-20T05:53:40.847Z,2.93
2019-02-20T05:54:40.752Z,2.93
2019-02-20T05:55:40.667Z,2.95
2019-02-20T05:56:40.575Z,3.03
2019-02-20T05:57:40.485Z,2.97
2019-02-20T05:58:40.399Z,3.00
2019-02-20T05:59:40.307Z,3.10
2019-02-20T06:00:40.223Z,2.98
2019-02-20T06:01:40.132Z,3.03
2019-02-20T06:02:40.045Z,3.05
2019-02-20T06:03:39.974Z,3.03
2019-02-20T06:04:39.864Z,3.03
2019-02-20T06:05:39.777Z,3.08
2019-02-20T06:06:39.688Z,3.04
2019-02-20T06:07:39.606Z,3.08
2019-02-20T06:08:39.504Z,3.05
2019-02-20T06:09:39.426Z,3.11
2019-02-20T06:10:39.329Z,3.00
2019-02-20T06:11:39.238Z,3.05
2019-02-20T06:12:39.157Z,3.00
2019-02-20T06:13:39.072Z,3.10
2019-02-20T06:14:38.999Z,2.98
2019-02-20T06:15:38.888Z,3.04
2019-02-20T06:16:38.819Z,3.07
2019-02-20T06:17:38.726Z,3.14
2019-02-20T06:18:38.632Z,3.19
2019-02-20T06:19:38.536Z,3.19
2019-02-20T06:20:38.446Z,3.13
2019-02-20T06:21:38.358Z,3.25
2019-02-20T06:22:38.269Z,3.14
2019-02-20T06:23:38.183Z,3.16
2019-02-20T06:24:44.140Z,3.25
2019-02-20T06:25:38.075Z,3.18
2019-02-20T06:26:37.920Z,3.23
2019-02-20T06:27:37.832Z,3.26
2019-02-20T06:28:37.740Z,3.21
2019-02-20T06:29:37.651Z,3.21
2019-02-20T06:30:37.565Z,3.29
2019-02-20T06:31:37.477Z,3.34
2019-02-20T06:32:37.383Z,3.28
2019-02-20T06:33:37.296Z,3.22
2019-02-20T06:34:37.217Z,3.26
2019-02-20T06:35:37.149Z,3.22
2019-02-20T06:36:37.033Z,3.25
2019-02-20T06:37:36.944Z,3.25
2019-02-20T06:38:36.862Z,3.28
2019-02-20T06:39:36.770Z,3.31
2019-02-20T06:40:36.679Z,3.26
2019-02-20T06:41:38.935Z,3.29
2019-02-20T06:42:36.505Z,3.31
2019-02-20T06:43:36.415Z,3.45
2019-02-20T06:44:36.328Z,3.40
2019-02-20T06:45:36.242Z,3.40
2019-02-20T06:46:36.149Z,3.44
2019-02-20T06:47:36.058Z,3.42
2019-02-20T06:48:35.971Z,3.53
2019-02-20T06:49:35.883Z,3.50
2019-02-20T06:50:35.796Z,3.48
2019-02-20T06:51:35.704Z,3.48
2019-02-20T06:52:35.619Z,3.56
2019-02-20T06:53:35.528Z,3.45
2019-02-20T06:54:35.437Z,3.53
2019-02-20T06:55:35.358Z,3.50
2019-02-20T06:56:35.267Z,3.53
2019-02-20T06:57:35.177Z,3.62
2019-02-20T06:58:35.089Z,3.50
2019-02-20T06:59:35.001Z,3.53
2019-02-20T07:00:34.909Z,3.47
2019-02-20T07:01:34.822Z,3.50
2019-02-20T07:02:35.820Z,3.60
2019-02-20T07:03:34.651Z,3.59
2019-02-20T07:04:34.556Z,3.66
2019-02-20T07:05:34.483Z,3.68
2019-02-20T07:06:34.381Z,3.63
2019-02-20T07:07:34.291Z,3.66
2019-02-20T07:08:34.202Z,3.70
2019-02-20T07:09:34.126Z,3.77
2019-02-20T07:10:34.029Z,3.76
2019-02-20T07:11:33.944Z,3.77
2019-02-20T07:12:33.850Z,3.76
2019-02-20T07:13:33.790Z,3.77
2019-02-20T07:14:33.675Z,3.84
2019-02-20T07:15:33.589Z,3.84
2019-02-20T07:16:33.499Z,3.78
2019-02-20T07:17:33.418Z,3.80
2019-02-20T07:18:33.344Z,3.77
2019-02-20T07:19:33.232Z,3.77
2019-02-20T07:20:33.145Z,3.84
2019-02-20T07:21:33.061Z,3.84
2019-02-20T07:22:32.972Z,3.77
2019-02-20T07:23:32.880Z,3.76
2019-02-20T07:24:32.798Z,3.86
2019-02-20T07:25:32.708Z,3.84
2019-02-20T07:26:32.622Z,3.86
2019-02-20T07:27:32.529Z,3.86
2019-02-20T07:28:32.440Z,3.91
2019-02-20T07:29:32.374Z,3.92
2019-02-20T07:30:32.268Z,3.92
2019-02-20T07:31:32.179Z,3.92
2019-02-20T07:32:32.089Z,3.95
2019-02-20T07:33:32.004Z,3.88
2019-02-20T07:34:31.913Z,3.92
2019-02-20T07:35:31.824Z,3.96
2019-02-20T07:36:31.733Z,3.95
2019-02-20T07:37:31.651Z,3.92
2019-02-20T07:38:31.562Z,3.95
2019-02-20T07:39:31.473Z,3.92
2019-02-20T07:40:31.393Z,3.95
2019-02-20T07:41:31.301Z,3.92
2019-02-20T07:42:31.209Z,3.95
2019-02-20T07:43:31.121Z,3.98
2019-02-20T07:44:31.032Z,3.96
2019-02-20T07:45:30.944Z,3.94
2019-02-20T07:46:30.857Z,3.95
2019-02-20T07:47:30.768Z,3.99
2019-02-20T07:48:30.673Z,4.01
2019-02-20T07:49:30.597Z,3.91
2019-02-20T07:50:30.507Z,3.98
2019-02-20T07:51:30.420Z,3.95
2019-02-20T07:52:30.334Z,3.91
2019-02-20T07:53:30.241Z,3.95
2019-02-20T07:54:30.155Z,3.95
2019-02-20T07:55:30.066Z,3.98
2019-02-20T07:56:29.979Z,3.96
2019-02-20T07:57:29.895Z,4.08
2019-02-20T07:58:29.800Z,3.92
2019-02-20T07:59:29.712Z,3.98
2019-02-20T08:00:29.623Z,3.96
2019-02-20T08:01:29.541Z,3.98
2019-02-20T08:02:29.447Z,4.06
2019-02-20T08:03:29.771Z,3.94
2019-02-20T08:04:29.273Z,3.96
2019-02-20T08:05:29.206Z,3.98
2019-02-20T08:06:29.095Z,3.99
2019-02-20T08:07:29.015Z,4.10
2019-02-20T08:08:28.924Z,4.10
2019-02-20T08:09:28.852Z,4.12
2019-02-20T08:10:28.744Z,4.14
2019-02-20T08:11:28.655Z,4.13
2019-02-20T08:12:28.568Z,4.12
2019-02-20T08:13:28.478Z,4.19
2019-02-20T08:14:28.394Z,4.34
2019-02-20T08:15:28.308Z,4.24
2019-02-20T08:16:28.217Z,4.31
2019-02-20T08:17:28.137Z,4.34
2019-02-20T08:18:28.043Z,4.34
2019-02-20T08:19:27.963Z,4.31
2019-02-20T08:20:27.871Z,4.32
2019-02-20T08:21:27.778Z,4.32
2019-02-20T08:22:27.699Z,4.42
2019-02-20T08:23:27.606Z,4.44
2019-02-20T08:24:27.515Z,4.49
2019-02-20T08:25:27.428Z,4.45
2019-02-20T08:26:27.345Z,4.45
2019-02-20T08:27:27.250Z,4.49
2019-02-20T08:28:27.164Z,4.45
2019-02-20T08:29:27.075Z,4.49
2019-02-20T08:30:26.991Z,4.49
2019-02-20T08:31:26.905Z,4.37
2019-02-20T08:32:26.819Z,4.35
2019-02-20T08:33:26.731Z,4.30
2019-02-20T08:34:26.647Z,4.34
2019-02-20T08:35:26.561Z,4.38
2019-02-20T08:36:26.467Z,4.20
2019-02-20T08:37:26.375Z,4.20
2019-02-20T08:38:26.291Z,4.20
2019-02-20T08:39:26.201Z,4.32
2019-02-20T08:40:26.114Z,4.17
2019-02-20T08:41:26.024Z,4.13
2019-02-20T08:42:25.942Z,4.13
2019-02-20T08:43:25.846Z,4.17
2019-02-20T08:44:25.758Z,4.13
2019-02-20T08:45:25.673Z,4.16
2019-02-20T08:46:25.583Z,4.20
2019-02-20T08:47:25.499Z,4.20
2019-02-20T08:48:26.525Z,4.34
2019-02-20T08:49:25.321Z,4.37
2019-02-20T08:50:25.235Z,4.32
2019-02-20T08:51:25.148Z,4.38
2019-02-20T08:52:25.060Z,4.50
2019-02-20T08:53:24.975Z,4.41
2019-02-20T08:54:24.884Z,4.45
2019-02-20T08:55:31.780Z,4.58
2019-02-20T08:56:24.710Z,4.44
2019-02-20T08:57:24.621Z,4.58
2019-02-20T08:58:24.532Z,4.56
2019-02-20T08:59:24.517Z,4.56
2019-02-20T09:00:24.360Z,4.58
2019-02-20T09:01:24.272Z,4.56
2019-02-20T09:02:24.183Z,4.58
2019-02-20T09:03:24.095Z,4.63
2019-02-20T09:04:24.007Z,4.62
2019-02-20T09:05:23.917Z,4.58
2019-02-20T09:06:23.832Z,4.58
2019-02-20T09:07:23.747Z,4.67
2019-02-20T09:08:23.657Z,4.63
2019-02-20T09:09:23.571Z,4.78
2019-02-20T09:10:23.480Z,4.68
2019-02-20T09:11:23.395Z,4.66
2019-02-20T09:12:23.309Z,4.70
2019-02-20T09:13:23.220Z,4.78
2019-02-20T09:14:23.140Z,4.84
2019-02-20T09:15:23.043Z,4.78
2019-02-20T09:16:22.956Z,4.86
2019-02-20T09:17:22.867Z,4.90
2019-02-20T09:18:22.780Z,4.90
2019-02-20T09:19:22.689Z,4.94
2019-02-20T09:20:22.623Z,4.96
2019-02-20T09:21:22.539Z,4.96
2019-02-20T09:22:22.436Z,4.96
2019-02-20T09:23:22.353Z,4.97
2019-02-20T09:24:22.262Z,5.02
2019-02-20T09:25:22.173Z,4.89
2019-02-20T09:26:22.086Z,4.97
2019-02-20T09:27:22.002Z,4.99
2019-02-20T09:28:21.909Z,4.96
2019-02-20T09:29:21.822Z,4.93
2019-02-20T09:30:28.283Z,4.93
2019-02-20T09:31:21.645Z,5.02
2019-02-20T09:32:21.559Z,5.11
2019-02-20T09:33:21.474Z,5.05
2019-02-20T09:34:21.383Z,5.17
2019-02-20T09:35:21.299Z,5.20
2019-02-20T09:36:21.208Z,5.26
2019-02-20T09:37:21.117Z,5.25
2019-02-20T09:38:21.036Z,5.30
2019-02-20T09:39:20.948Z,5.29
2019-02-20T09:40:20.865Z,5.36
2019-02-20T09:41:20.774Z,5.35
2019-02-20T09:42:20.687Z,5.50
2019-02-20T09:43:20.598Z,5.53
2019-02-20T09:44:20.512Z,5.54
2019-02-20T09:45:20.426Z,5.56
2019-02-20T09:46:20.347Z,5.61
2019-02-20T09:47:20.261Z,5.59
2019-02-20T09:48:20.187Z,5.54
2019-02-20T09:49:20.080Z,5.44
2019-02-20T09:50:19.993Z,5.43
2019-02-20T09:51:19.909Z,5.43
2019-02-20T09:52:19.818Z,5.44
2019-02-20T09:53:19.742Z,5.36
2019-02-20T09:54:19.647Z,5.38
2019-02-20T09:55:19.558Z,5.36
2019-02-20T09:56:19.474Z,5.32
2019-02-20T09:57:19.388Z,5.35
2019-02-20T09:58:19.313Z,5.29
2019-02-20T09:59:19.215Z,5.35
2019-02-20T10:00:19.125Z,5.36
2019-02-20T10:01:19.047Z,5.43
2019-02-20T10:02:18.946Z,5.29
2019-02-20T10:03:18.863Z,5.39
2019-02-20T10:04:18.776Z,5.43
2019-02-20T10:05:18.691Z,5.33
2019-02-20T10:06:18.602Z,5.36
2019-02-20T10:07:18.518Z,5.50
2019-02-20T10:08:18.428Z,5.51
2019-02-20T10:09:18.340Z,5.51
2019-02-20T10:10:18.258Z,5.46
2019-02-20T10:11:18.166Z,5.53
2019-02-20T10:12:18.082Z,5.62
2019-02-20T10:13:17.996Z,5.69
2019-02-20T10:14:17.906Z,5.76
2019-02-20T10:15:17.829Z,5.73
2019-02-20T10:16:17.735Z,5.79
2019-02-20T10:17:17.648Z,5.90
2019-02-20T10:18:17.563Z,5.73
2019-02-20T10:19:17.474Z,5.75
2019-02-20T10:20:17.390Z,5.72
2019-02-20T10:21:17.331Z,5.75
2019-02-20T10:22:17.213Z,5.72
2019-02-20T10:24:56.257Z,5.56
2019-02-20T10:26:00.959Z,5.69
2019-02-20T10:28:00.454Z,5.68
2019-02-20T10:29:00.362Z,5.73
2019-02-20T10:31:04.665Z,5.76
2019-02-20T10:32:04.573Z,5.76
2019-02-20T10:33:57.805Z,5.94
2019-02-20T10:34:57.697Z,5.97
2019-02-20T10:37:01.984Z,5.97
2019-02-20T10:38:01.894Z,6.02
2019-02-20T10:40:07.198Z,6.04
2019-02-20T10:41:07.095Z,6.04
2019-02-20T10:43:11.386Z,6.16
2019-02-20T10:44:11.300Z,6.16
2019-02-20T10:46:15.597Z,6.20
2019-02-20T10:47:15.484Z,6.30
2019-02-20T10:49:19.787Z,6.51
2019-02-20T10:50:19.676Z,6.62
2019-02-20T10:52:23.968Z,6.75
2019-02-20T10:53:23.872Z,6.92
2019-02-20T10:54:23.790Z,7.00
2019-02-20T10:55:23.706Z,7.20
2019-02-20T10:56:23.618Z,7.32
2019-02-20T10:57:23.534Z,7.54
2019-02-20T10:58:23.443Z,7.50
2019-02-20T10:59:23.354Z,7.54
2019-02-20T11:00:24.439Z,7.54
2019-02-20T11:01:23.187Z,7.57
2019-02-20T11:02:23.103Z,7.57
2019-02-20T11:03:23.015Z,7.61
2019-02-20T11:04:22.933Z,7.73
2019-02-20T11:05:22.845Z,7.72
2019-02-20T11:06:22.761Z,7.67
2019-02-20T11:07:22.675Z,7.73
2019-02-20T11:08:22.590Z,7.72
2019-02-20T11:09:22.503Z,7.82
2019-02-20T11:10:24.038Z,7.94
2019-02-20T11:11:22.333Z,8.08
2019-02-20T11:12:22.254Z,8.13
2019-02-20T11:13:22.165Z,8.05
2019-02-20T11:14:22.081Z,7.94
2019-02-20T11:15:21.994Z,7.91
2019-02-20T11:16:21.910Z,7.95
2019-02-20T11:17:21.823Z,7.91
2019-02-20T11:18:21.741Z,8.01
2019-02-20T11:19:21.670Z,8.03
2019-02-20T11:20:21.612Z,8.16
2019-02-20T11:21:21.485Z,8.26
2019-02-20T11:22:21.404Z,8.45
2019-02-20T11:23:21.316Z,8.51
2019-02-20T11:24:21.229Z,8.55
2019-02-20T11:25:21.145Z,8.56
2019-02-20T11:26:21.063Z,8.63
2019-02-20T11:27:20.977Z,8.56
2019-02-20T11:28:26.766Z,8.64
2019-02-20T11:29:20.810Z,8.64
2019-02-20T11:30:20.731Z,8.79
2019-02-20T11:31:20.640Z,8.74
2019-02-20T11:32:20.557Z,8.73
2019-02-20T11:33:20.470Z,8.53
2019-02-20T11:34:20.388Z,8.49
2019-02-20T11:35:20.303Z,8.48
2019-02-20T11:36:20.229Z,8.51
2019-02-20T11:37:20.137Z,8.44
2019-02-20T11:38:20.047Z,8.51
2019-02-20T11:39:19.967Z,8.49
2019-02-20T11:40:19.877Z,8.49
2019-02-20T11:41:19.811Z,8.49
2019-02-20T11:42:19.714Z,8.55
2019-02-20T11:43:21.306Z,8.52
2019-02-20T11:44:21.264Z,8.63
2019-02-20T11:45:19.463Z,8.52
2019-02-20T11:46:19.377Z,8.58
2019-02-20T11:47:19.292Z,8.58
2019-02-20T11:48:19.210Z,8.71
2019-02-20T11:49:19.123Z,8.84
2019-02-20T11:50:19.044Z,8.78
2019-02-20T11:51:18.959Z,8.79
2019-02-20T11:52:18.876Z,8.94
2019-02-20T11:53:18.791Z,9.06
2019-02-20T11:54:18.706Z,9.02
2019-02-20T11:55:18.625Z,9.13
2019-02-20T11:56:26.232Z,9.29
2019-02-20T11:57:18.455Z,9.39
2019-02-20T11:58:18.372Z,9.46
2019-02-20T11:59:18.288Z,9.65
2019-02-20T12:00:18.203Z,9.73
2019-02-20T12:01:18.121Z,9.87
2019-02-20T12:02:18.037Z,10.17
2019-02-20T12:03:17.952Z,10.53
2019-02-20T12:04:17.872Z,10.71
2019-02-20T12:05:17.789Z,10.71
2019-02-20T12:06:17.707Z,10.79
2019-02-20T12:07:17.625Z,10.75
2019-02-20T12:08:17.542Z,10.87
2019-02-20T12:09:17.463Z,10.90
2019-02-20T12:10:17.382Z,10.89
2019-02-20T12:11:17.294Z,10.89
2019-02-20T12:12:17.214Z,10.90
2019-02-20T12:13:17.134Z,10.94
2019-02-20T12:14:17.053Z,10.79
2019-02-20T12:15:16.973Z,10.49
2019-02-20T12:16:16.893Z,10.33
2019-02-20T12:17:16.809Z,10.19
2019-02-20T12:18:17.562Z,10.13
2019-02-20T12:19:16.646Z,10.05
2019-02-20T12:20:16.565Z,9.95
2019-02-20T12:21:16.488Z,9.95
2019-02-20T12:22:16.406Z,9.99
2019-02-20T12:23:16.321Z,10.25
2019-02-20T12:24:16.240Z,10.48
2019-02-20T12:25:16.155Z,10.68
2019-02-20T12:26:16.076Z,10.75
2019-02-20T12:27:15.994Z,10.69
2019-02-20T12:28:15.917Z,10.68
2019-02-20T12:29:15.881Z,10.75
2019-02-20T12:30:15.789Z,10.82
2019-02-20T12:31:15.674Z,10.87
2019-02-20T12:32:15.585Z,10.94
2019-02-20T12:33:15.505Z,11.15
2019-02-20T12:34:15.424Z,11.78
2019-02-20T12:35:15.343Z,11.99
2019-02-20T12:36:15.262Z,12.03
2019-02-20T12:37:15.182Z,12.15
2019-02-20T12:38:15.098Z,12.22
2019-02-20T12:39:15.023Z,12.21
2019-02-20T12:40:14.941Z,12.24
2019-02-20T12:41:14.861Z,11.99
2019-02-20T12:42:14.781Z,11.68
2019-02-20T12:43:14.701Z,11.43
2019-02-20T12:44:14.668Z,11.51
2019-02-20T12:45:14.539Z,11.52
2019-02-20T12:46:14.472Z,11.54
2019-02-20T12:47:14.377Z,11.65
2019-02-20T12:48:14.298Z,11.66
2019-02-20T12:49:14.218Z,11.68
2019-02-20T12:50:14.142Z,11.80
2019-02-20T12:51:14.060Z,11.95
2019-02-20T12:52:13.979Z,11.80
2019-02-20T12:53:13.958Z,11.66
2019-02-20T12:54:13.821Z,11.70
2019-02-20T12:55:13.737Z,11.86
2019-02-20T12:56:13.661Z,11.65
2019-02-20T12:57:13.581Z,11.47
2019-02-20T12:58:13.494Z,11.50
2019-02-20T12:59:13.415Z,11.41
2019-02-20T13:00:13.336Z,11.62
2019-02-20T13:01:13.256Z,11.45
2019-02-20T13:02:13.175Z,11.33
2019-02-20T13:03:13.095Z,11.25
2019-02-20T13:04:13.015Z,11.25
2019-02-20T13:05:12.933Z,11.25
2019-02-20T13:06:12.854Z,11.35
2019-02-20T13:07:12.773Z,11.47
2019-02-20T13:08:12.686Z,11.63
2019-02-20T13:09:12.611Z,11.69
2019-02-20T13:10:12.534Z,11.66
2019-02-20T13:11:14.363Z,11.51
2019-02-20T13:12:12.367Z,11.59
2019-02-20T13:13:12.290Z,11.55
2019-02-20T13:14:12.205Z,11.48
2019-02-20T13:15:12.130Z,11.45
2019-02-20T13:16:12.038Z,11.47
2019-02-20T13:17:11.961Z,11.37
2019-02-20T13:18:11.907Z,11.26
2019-02-20T13:19:11.794Z,11.17
2019-02-20T13:20:11.721Z,11.15
2019-02-20T13:21:11.639Z,11.18
2019-02-20T13:22:11.570Z,11.15
2019-02-20T13:23:11.478Z,11.07
2019-02-20T13:24:11.396Z,11.18
2019-02-20T13:25:11.313Z,11.26
2019-02-20T13:26:11.232Z,11.19
2019-02-20T13:27:11.154Z,11.12
2019-02-20T13:28:11.071Z,11.19